createdAt,value
2024-04-09T00:01:38.700Z,72.30
2024-04-09T00:04:06.710Z,72.20
2024-04-09T00:06:33.955Z,72.00
2024-04-09T00:09:07.404Z,72.10
2024-04-09T00:11:34.681Z,72.10
2024-04-09T00:14:05.677Z,72.00
2024-04-09T00:16:35.266Z,71.90
2024-04-09T00:19:02.947Z,71.80
2024-04-09T00:21:31.122Z,72.10
2024-04-09T00:23:59.708Z,72.50
2024-04-09T00:26:29.748Z,72.90
2024-04-09T00:28:56.824Z,73.20
2024-04-09T00:31:26.199Z,73.50
2024-04-09T00:33:53.661Z,73.70
2024-04-09T00:36:21.346Z,74.10
2024-04-09T00:38:49.088Z,74.40
2024-04-09T00:41:19.159Z,74.70
2024-04-09T00:43:46.939Z,74.80
2024-04-09T00:46:14.924Z,75.10
2024-04-09T00:48:43.336Z,75.30
2024-04-09T00:51:13.554Z,75.50
2024-04-09T00:53:44.362Z,75.70
2024-04-09T00:56:12.601Z,75.90
2024-04-09T00:58:40.417Z,75.90
2024-04-09T01:01:07.893Z,76.10
2024-04-09T01:03:37.130Z,76.50
2024-04-09T01:06:10.497Z,76.80
2024-04-09T01:08:37.681Z,77.10
2024-04-09T01:11:08.970Z,77.40
2024-04-09T01:13:39.590Z,77.70
2024-04-09T01:16:06.972Z,78.00
2024-04-09T01:18:34.062Z,78.20
2024-04-09T01:21:01.256Z,78.30
2024-04-09T01:23:28.206Z,78.40
2024-04-09T01:25:55.159Z,78.60
2024-04-09T01:28:22.066Z,78.80
2024-04-09T01:30:52.395Z,78.90
2024-04-09T01:33:19.721Z,79.10
2024-04-09T01:35:48.047Z,79.10
2024-04-09T01:38:15.143Z,79.10
2024-04-09T01:40:42.071Z,79.30
2024-04-09T01:43:08.986Z,79.40
2024-04-09T01:45:36.191Z,79.40
2024-04-09T01:48:03.377Z,79.50
2024-04-09T01:50:30.405Z,79.60
2024-04-09T01:52:57.379Z,79.60
2024-04-09T01:55:24.401Z,79.60
2024-04-09T01:57:51.826Z,79.90
2024-04-09T02:00:21.799Z,79.90
2024-04-09T02:02:53.883Z,79.90
2024-04-09T02:05:22.048Z,79.90
2024-04-09T02:07:49.787Z,79.90
2024-04-09T02:10:16.901Z,79.90
2024-04-09T02:12:44.403Z,79.60
2024-04-09T02:15:15.780Z,79.50
2024-04-09T02:17:42.859Z,79.60
2024-04-09T02:20:11.643Z,79.90
2024-04-09T02:22:39.117Z,80.20
2024-04-09T02:25:06.575Z,80.40
2024-04-09T02:27:34.282Z,80.40
2024-04-09T02:30:04.321Z,80.10
2024-04-09T02:32:33.156Z,79.80
2024-04-09T02:35:00.228Z,79.70
2024-04-09T02:37:27.385Z,79.70
2024-04-09T02:39:54.338Z,79.80
2024-04-09T02:42:22.025Z,79.80
2024-04-09T02:44:49.206Z,79.80
2024-04-09T02:47:16.567Z,80.00
2024-04-09T02:49:45.480Z,79.90
2024-04-09T02:52:12.937Z,79.60
2024-04-09T02:54:42.861Z,79.60
2024-04-09T02:57:11.882Z,79.60
2024-04-09T02:59:40.572Z,79.60
2024-04-09T03:02:07.724Z,79.30
2024-04-09T03:04:34.915Z,79.40
2024-04-09T03:07:01.871Z,79.30
2024-04-09T03:09:29.463Z,79.10
2024-04-09T03:11:58.825Z,79.10
2024-04-09T03:14:26.438Z,79.20
2024-04-09T03:16:53.449Z,79.40
2024-04-09T03:19:20.381Z,79.40
2024-04-09T03:21:47.296Z,79.40
2024-04-09T03:24:14.273Z,79.40
2024-04-09T03:26:41.237Z,79.30
2024-04-09T03:29:08.304Z,79.40
2024-04-09T03:31:35.439Z,79.50
2024-04-09T03:34:02.530Z,79.50
2024-04-09T03:36:29.742Z,79.30
2024-04-09T03:38:56.736Z,79.10
2024-04-09T03:41:23.762Z,79.10
2024-04-09T03:43:51.129Z,79.10
2024-04-09T03:46:18.103Z,79.40
2024-04-09T03:48:47.042Z,79.40
2024-04-09T03:51:16.365Z,79.30
2024-04-09T03:53:45.953Z,79.20
2024-04-09T03:56:13.332Z,79.30
2024-04-09T03:58:45.584Z,79.10
2024-04-09T04:01:13.766Z,79.10
2024-04-09T04:03:43.422Z,79.10
2024-04-09T04:06:10.919Z,79.20
2024-04-09T04:08:39.911Z,79.10
2024-04-09T04:11:09.477Z,79.30
2024-04-09T04:13:37.860Z,79.30
2024-04-09T04:16:05.830Z,79.20
2024-04-09T04:18:36.450Z,79.30
2024-04-09T04:21:06.327Z,79.30
2024-04-09T04:23:35.267Z,79.30
2024-04-09T04:26:04.537Z,79.40
2024-04-09T04:28:32.786Z,78.90
2024-04-09T04:31:00.693Z,78.00
2024-04-09T04:33:28.784Z,77.90
2024-04-09T04:35:56.025Z,77.40
2024-04-09T04:38:23.664Z,77.50
2024-04-09T04:40:53.753Z,78.00
2024-04-09T04:43:20.920Z,77.90
2024-04-09T04:45:48.607Z,77.90
2024-04-09T04:48:18.079Z,78.10
2024-04-09T04:50:47.919Z,78.30
2024-04-09T04:53:15.346Z,78.30
2024-04-09T04:55:42.439Z,78.40
2024-04-09T04:58:09.564Z,78.50
2024-04-09T05:00:43.203Z,78.50
2024-04-09T05:03:11.215Z,78.80
2024-04-09T05:05:38.839Z,79.00
2024-04-09T05:08:06.186Z,79.40
2024-04-09T05:10:33.662Z,79.70
2024-04-09T05:13:01.359Z,79.60
2024-04-09T05:15:30.077Z,79.60
2024-04-09T05:17:58.744Z,79.90
2024-04-09T05:20:30.233Z,80.20
2024-04-09T05:22:58.176Z,80.40
2024-04-09T05:25:28.538Z,80.70
2024-04-09T05:27:56.352Z,81.00
2024-04-09T05:30:23.818Z,80.60
2024-04-09T05:32:50.927Z,80.50
2024-04-09T05:35:21.169Z,80.50
2024-04-09T05:37:48.685Z,80.50
2024-04-09T05:40:16.074Z,80.60
2024-04-09T05:42:45.910Z,80.80
2024-04-09T05:45:15.775Z,80.70
2024-04-09T05:47:43.157Z,80.90
2024-04-09T05:50:10.392Z,81.10
2024-04-09T05:52:37.773Z,81.10
2024-04-09T05:55:06.925Z,81.30
2024-04-09T05:57:43.491Z,81.30
2024-04-09T06:00:15.992Z,81.30
2024-04-09T06:02:46.985Z,81.40
2024-04-09T06:05:17.377Z,81.20
2024-04-09T06:07:46.476Z,81.10
2024-04-09T06:10:16.490Z,81.00
2024-04-09T06:12:43.980Z,81.20
2024-04-09T06:15:11.449Z,81.40
2024-04-09T06:17:38.603Z,81.60
2024-04-09T06:20:06.592Z,81.60
2024-04-09T06:22:33.984Z,81.40
2024-04-09T06:25:01.340Z,80.90
2024-04-09T06:27:28.501Z,80.70
2024-04-09T06:29:55.751Z,80.60
2024-04-09T06:32:25.970Z,80.60
2024-04-09T06:34:52.974Z,80.40
2024-04-09T06:37:20.163Z,80.20
2024-04-09T06:39:47.877Z,79.60
2024-04-09T06:42:15.032Z,79.50
2024-04-09T06:44:42.061Z,79.50
2024-04-09T06:47:09.127Z,79.40
2024-04-09T06:49:36.313Z,79.00
2024-04-09T06:52:03.791Z,77.50
2024-04-09T06:54:31.286Z,75.80
2024-04-09T06:56:58.396Z,76.00
2024-04-09T06:59:27.730Z,75.20
2024-04-09T07:01:57.618Z,74.70
2024-04-09T07:04:27.395Z,75.40
2024-04-09T07:06:55.429Z,75.80
2024-04-09T07:09:23.606Z,74.60
2024-04-09T07:11:51.705Z,74.90
2024-04-09T07:14:18.757Z,74.00
2024-04-09T07:16:56.552Z,73.70
2024-04-09T07:19:23.891Z,74.20
2024-04-09T07:21:51.035Z,73.00
2024-04-09T07:24:18.051Z,73.40
2024-04-09T07:26:45.079Z,73.90
2024-04-09T07:29:14.163Z,73.10
2024-04-09T07:31:41.945Z,73.30
2024-04-09T07:34:09.024Z,72.50
2024-04-09T07:36:36.113Z,70.80
2024-04-09T07:39:04.406Z,69.50
2024-04-09T07:41:31.471Z,67.20
2024-04-09T07:43:58.518Z,68.80
2024-04-09T07:46:25.746Z,68.50
2024-04-09T07:48:53.310Z,67.80
2024-04-09T07:51:20.648Z,65.60
2024-04-09T07:53:47.657Z,66.50
2024-04-09T07:56:14.711Z,66.70
2024-04-09T07:58:41.662Z,65.30
2024-04-09T08:01:08.819Z,65.80
2024-04-09T08:03:36.720Z,65.40
2024-04-09T08:06:05.584Z,63.30
2024-04-09T08:08:38.312Z,63.80
2024-04-09T08:11:12.786Z,63.60
2024-04-09T08:13:40.164Z,64.10
2024-04-09T08:16:07.692Z,64.20
2024-04-09T08:18:35.288Z,62.90
2024-04-09T08:21:03.583Z,62.70
2024-04-09T08:23:31.917Z,61.40
2024-04-09T08:26:01.861Z,64.40
2024-04-09T08:28:29.458Z,63.50
2024-04-09T08:30:56.596Z,63.30
2024-04-09T08:33:23.861Z,62.70
2024-04-09T08:35:51.677Z,61.40
2024-04-09T08:38:19.292Z,61.50
2024-04-09T08:40:46.519Z,61.60
2024-04-09T08:43:16.946Z,63.60
2024-04-09T08:45:45.528Z,64.30
2024-04-09T08:48:16.623Z,63.10
2024-04-09T08:50:54.403Z,63.10
2024-04-09T08:53:24.693Z,61.60
2024-04-09T08:55:52.583Z,61.90
2024-04-09T08:58:19.607Z,61.30
2024-04-09T09:00:47.768Z,61.50
2024-04-09T09:03:16.280Z,62.10
2024-04-09T09:05:43.414Z,62.10
2024-04-09T09:08:10.525Z,61.70
2024-04-09T09:10:37.652Z,61.20
2024-04-09T09:13:05.847Z,61.40
2024-04-09T09:15:33.688Z,61.00
2024-04-09T09:18:00.924Z,59.20
2024-04-09T09:20:28.210Z,58.40
2024-04-09T09:22:57.919Z,57.90
2024-04-09T09:25:27.112Z,58.90
2024-04-09T09:28:10.279Z,58.50
2024-04-09T09:30:44.762Z,56.20
2024-04-09T09:33:32.224Z,56.50
2024-04-09T09:36:00.768Z,56.50
2024-04-09T09:38:28.210Z,56.50
2024-04-09T09:40:55.809Z,54.00
2024-04-09T09:43:24.072Z,54.20
2024-04-09T09:45:53.743Z,54.40
2024-04-09T09:48:22.755Z,54.80
2024-04-09T09:50:52.773Z,54.70
2024-04-09T09:53:21.334Z,53.80
2024-04-09T09:55:52.693Z,54.50
2024-04-09T09:58:26.769Z,54.10
2024-04-09T10:00:55.071Z,54.40
2024-04-09T10:03:23.555Z,53.90
2024-04-09T10:05:50.986Z,53.90
2024-04-09T10:08:29.101Z,53.60
2024-04-09T10:10:56.629Z,54.20
2024-04-09T10:13:29.374Z,54.10
2024-04-09T10:15:58.287Z,51.60
2024-04-09T10:18:35.169Z,52.20
2024-04-09T10:21:04.592Z,51.90
2024-04-09T10:23:42.580Z,52.50
2024-04-09T10:26:12.707Z,53.00
2024-04-09T10:28:39.905Z,52.60
2024-04-09T10:31:11.589Z,51.90
2024-04-09T10:33:40.713Z,51.80
2024-04-09T10:36:10.188Z,51.90
2024-04-09T10:38:43.967Z,52.20
2024-04-09T10:41:13.467Z,51.40
2024-04-09T10:43:41.023Z,51.90
2024-04-09T10:46:14.051Z,51.50
2024-04-09T10:48:43.925Z,51.40
2024-04-09T10:51:12.255Z,50.60
2024-04-09T10:53:39.765Z,50.90
2024-04-09T10:56:07.210Z,50.90
2024-04-09T10:58:39.235Z,50.90
2024-04-09T11:01:07.555Z,50.90
2024-04-09T11:03:36.009Z,51.20
2024-04-09T11:06:03.456Z,51.30
2024-04-09T11:08:33.051Z,51.20
2024-04-09T11:11:02.384Z,51.10
2024-04-09T11:13:31.528Z,51.40
2024-04-09T11:15:59.481Z,51.60
2024-04-09T11:18:27.098Z,52.10
2024-04-09T11:20:58.895Z,52.60
2024-04-09T11:23:26.542Z,52.50
2024-04-09T11:25:55.722Z,52.70
2024-04-09T11:28:24.073Z,52.70
2024-04-09T11:30:55.781Z,51.90
2024-04-09T11:33:23.733Z,52.10
2024-04-09T11:35:56.358Z,52.10
2024-04-09T11:38:23.686Z,52.00
2024-04-09T11:40:51.587Z,52.40
2024-04-09T11:43:21.751Z,51.90
2024-04-09T11:45:52.050Z,51.30
2024-04-09T11:48:22.489Z,50.90
2024-04-09T11:50:49.706Z,50.60
2024-04-09T11:53:20.862Z,50.80
2024-04-09T11:55:50.930Z,50.90
2024-04-09T11:58:18.427Z,51.00
2024-04-09T12:00:45.689Z,51.40
2024-04-09T12:03:13.228Z,51.30
2024-04-09T12:05:40.545Z,51.60
2024-04-09T12:08:07.783Z,52.20
2024-04-09T12:10:35.007Z,51.90
2024-04-09T12:13:02.181Z,52.00
2024-04-09T12:15:30.187Z,52.10
2024-04-09T12:17:59.024Z,52.30
2024-04-09T12:20:26.460Z,52.50
2024-04-09T12:22:53.811Z,53.00
2024-04-09T12:25:20.905Z,53.10
2024-04-09T12:27:48.124Z,53.40
2024-04-09T12:30:16.982Z,53.30
2024-04-09T12:32:44.522Z,53.20
2024-04-09T12:35:12.495Z,53.10
2024-04-09T12:37:39.674Z,53.30
2024-04-09T12:40:07.300Z,53.20
2024-04-09T12:42:34.568Z,53.40
2024-04-09T12:45:01.832Z,53.50
2024-04-09T12:47:29.034Z,53.20
2024-04-09T12:49:56.303Z,53.30
2024-04-09T12:52:23.434Z,53.30
2024-04-09T12:54:50.566Z,53.40
2024-04-09T12:57:17.785Z,53.50
2024-04-09T12:59:59.109Z,53.10
2024-04-09T13:02:32.628Z,52.80
2024-04-09T13:05:01.041Z,52.90
2024-04-09T13:07:28.615Z,52.70
2024-04-09T13:09:57.365Z,52.80
2024-04-09T13:12:25.675Z,52.80
2024-04-09T13:17:22.993Z,53.00
2024-04-09T13:19:51.550Z,53.00
2024-04-09T13:22:18.689Z,52.90
2024-04-09T13:24:45.778Z,52.30
2024-04-09T13:27:12.978Z,50.90
2024-04-09T13:29:40.103Z,50.10
2024-04-09T13:32:07.637Z,50.20
2024-04-09T13:34:34.689Z,50.40
2024-04-09T13:37:01.749Z,51.20
2024-04-09T13:39:28.712Z,51.30
2024-04-09T13:41:55.986Z,51.10
2024-04-09T13:44:23.061Z,51.30
2024-04-09T13:46:51.392Z,51.30
2024-04-09T13:49:19.970Z,51.30
2024-04-09T13:51:47.292Z,51.70
2024-04-09T13:54:14.368Z,52.10
2024-04-09T13:56:44.138Z,52.50
2024-04-09T13:59:12.096Z,53.20
2024-04-09T14:01:39.290Z,53.50
2024-04-09T14:04:07.086Z,53.60
2024-04-09T14:06:34.395Z,53.60
2024-04-09T14:09:01.329Z,54.30
2024-04-09T14:11:29.613Z,55.20
2024-04-09T14:13:58.382Z,57.80
2024-04-09T14:16:25.865Z,59.80
2024-04-09T14:18:53.603Z,61.10
2024-04-09T14:21:20.879Z,61.90
2024-04-09T14:23:48.198Z,62.80
2024-04-09T14:26:15.392Z,64.70
2024-04-09T14:28:43.925Z,67.10
2024-04-09T14:31:16.476Z,69.10
2024-04-09T14:33:48.426Z,71.20
2024-04-09T14:36:15.591Z,72.70
2024-04-09T14:38:42.967Z,71.70
2024-04-09T14:41:14.974Z,71.50
2024-04-09T14:43:46.758Z,72.10
2024-04-09T14:46:20.341Z,72.60
2024-04-09T14:48:49.836Z,73.30
2024-04-09T14:51:19.075Z,73.10
2024-04-09T14:53:46.302Z,73.40
2024-04-09T14:56:13.313Z,73.30
2024-04-09T14:58:40.356Z,73.70
2024-04-09T15:01:07.832Z,74.20
2024-04-09T15:03:35.222Z,75.60
2024-04-09T15:06:02.361Z,75.90
2024-04-09T15:08:31.269Z,76.30
2024-04-09T15:11:08.620Z,76.30
2024-04-09T15:13:35.659Z,76.40
2024-04-09T15:16:02.877Z,76.20
2024-04-09T15:18:29.983Z,74.90
2024-04-09T15:20:57.004Z,74.90
2024-04-09T15:23:24.138Z,74.80
2024-04-09T15:25:55.592Z,73.60
2024-04-09T15:28:22.736Z,73.60
2024-04-09T15:30:53.656Z,72.20
2024-04-09T15:33:21.678Z,73.50
2024-04-09T15:35:55.898Z,73.50
2024-04-09T15:38:23.632Z,71.70
2024-04-09T15:40:54.432Z,71.20
2024-04-09T15:43:21.871Z,72.00
2024-04-09T15:45:49.526Z,72.20
2024-04-09T15:48:18.721Z,71.30
2024-04-09T15:50:46.148Z,70.20
2024-04-09T15:53:13.166Z,70.10
2024-04-09T15:55:40.322Z,70.50
2024-04-09T15:58:07.278Z,69.70
2024-04-09T16:00:35.793Z,70.00
2024-04-09T16:03:03.044Z,69.80
2024-04-09T16:05:31.998Z,70.50
2024-04-09T16:07:59.303Z,70.40
2024-04-09T16:10:26.905Z,71.00
2024-04-09T16:12:53.928Z,71.70
2024-04-09T16:15:20.939Z,72.70
2024-04-09T16:17:52.536Z,73.50
2024-04-09T16:20:19.900Z,72.80
2024-04-09T16:22:46.961Z,72.10
2024-04-09T16:25:15.453Z,71.40
2024-04-09T16:27:42.543Z,70.80
2024-04-09T16:30:11.800Z,70.50
2024-04-09T16:32:41.382Z,70.50
2024-04-09T16:35:09.825Z,69.10
2024-04-09T16:37:37.071Z,70.10
2024-04-09T16:40:05.717Z,70.70
2024-04-09T16:42:32.825Z,71.20
2024-04-09T16:45:04.449Z,71.40
2024-04-09T16:47:32.049Z,71.70
2024-04-09T16:49:59.104Z,72.30
2024-04-09T16:52:26.437Z,71.80
2024-04-09T16:54:53.462Z,72.70
2024-04-09T16:57:29.836Z,73.40
2024-04-09T17:00:05.416Z,74.50
2024-04-09T17:02:32.577Z,75.90
2024-04-09T21:30:59.180Z,75.40
2024-04-09T21:33:26.795Z,75.20
2024-04-09T21:35:55.810Z,75.30
2024-04-09T21:38:23.171Z,75.50
2024-04-09T21:40:50.418Z,74.90
2024-04-09T21:43:17.441Z,74.50
2024-04-09T21:45:47.406Z,75.10
2024-04-09T21:48:14.562Z,74.50
2024-04-09T21:50:41.778Z,74.80
2024-04-09T21:53:08.851Z,74.80
2024-04-09T21:55:35.866Z,74.70
2024-04-09T21:58:04.307Z,74.40
2024-04-09T22:00:39.030Z,74.40
2024-04-09T22:03:06.338Z,74.60
2024-04-09T22:05:33.651Z,73.90
2024-04-09T22:08:00.788Z,73.80
2024-04-09T22:10:29.294Z,73.20
2024-04-09T22:13:00.280Z,72.90
2024-04-09T22:15:27.661Z,72.50
2024-04-09T22:17:54.994Z,72.10
2024-04-09T22:20:22.900Z,72.50
2024-04-09T22:22:50.133Z,71.90
2024-04-09T22:25:17.652Z,71.40
2024-04-09T22:27:47.985Z,71.60
2024-04-09T22:30:14.997Z,71.40
2024-04-09T22:32:43.938Z,71.50
2024-04-09T22:35:11.113Z,71.80
2024-04-09T22:37:38.051Z,71.40
2024-04-09T22:40:05.914Z,71.80
2024-04-09T22:42:33.842Z,71.20
2024-04-09T22:45:00.860Z,71.90
2024-04-09T22:47:31.277Z,72.40
2024-04-09T22:49:58.594Z,72.30
2024-04-09T22:52:27.964Z,72.20
2024-04-09T22:54:55.097Z,72.00
2024-04-09T22:57:22.242Z,72.00
2024-04-09T22:59:49.465Z,72.00
2024-04-09T23:02:17.302Z,71.40
2024-04-09T23:04:44.673Z,72.00
2024-04-09T23:07:12.252Z,72.20
2024-04-09T23:09:44.635Z,72.50
2024-04-09T23:12:15.233Z,71.70
2024-04-09T23:14:43.061Z,72.10
2024-04-09T23:17:10.973Z,72.10
2024-04-09T23:19:38.095Z,71.90
2024-04-09T23:22:05.363Z,72.50
2024-04-09T23:24:32.432Z,72.10
2024-04-09T23:26:59.547Z,72.10
2024-04-09T23:29:26.645Z,71.50
2024-04-09T23:31:53.817Z,72.00
2024-04-09T23:34:20.953Z,72.30
2024-04-09T23:36:48.034Z,72.10
2024-04-09T23:39:16.278Z,72.40
2024-04-09T23:41:43.303Z,72.20
2024-04-09T23:44:10.920Z,72.40
2024-04-09T23:46:38.025Z,71.80
2024-04-09T23:49:05.082Z,72.20
2024-04-09T23:51:32.169Z,72.20
2024-04-09T23:53:59.186Z,72.80
2024-04-09T23:56:26.632Z,72.40
2024-04-09T23:58:53.704Z,72.30
